sensor_id;sensor_type;location;lat;lon;timestamp;P1;durP1;ratioP1;P2;durP2;ratioP2
69030;SDS011;56083;48.774;8.942;2022-08-25T00:01:36;5.75;;;3.05;;
69030;SDS011;56083;48.774;8.942;2022-08-25T00:04:05;4.38;;;3.20;;
69030;SDS011;56083;48.774;8.942;2022-08-25T00:06:34;6.78;;;3.70;;
69030;SDS011;56083;48.774;8.942;2022-08-25T00:08:59;6.82;;;3.30;;
69030;SDS011;56083;48.774;8.942;2022-08-25T00:11:30;6.93;;;3.30;;
69030;SDS011;56083;48.774;8.942;2022-08-25T00:13:58;3.78;;;3.17;;
69030;SDS011;56083;48.774;8.942;2022-08-25T00:16:26;4.72;;;3.00;;
69030;SDS011;56083;48.774;8.942;2022-08-25T00:18:55;5.22;;;3.70;;
69030;SDS011;56083;48.774;8.942;2022-08-25T00:21:23;5.85;;;3.13;;
69030;SDS011;56083;48.774;8.942;2022-08-25T00:23:50;3.53;;;2.75;;
69030;SDS011;56083;48.774;8.942;2022-08-25T00:26:16;4.38;;;3.05;;
69030;SDS011;56083;48.774;8.942;2022-08-25T00:28:42;7.15;;;3.10;;
69030;SDS011;56083;48.774;8.942;2022-08-25T00:31:18;4.70;;;3.15;;
69030;SDS011;56083;48.774;8.942;2022-08-25T00:33:46;4.13;;;3.15;;
69030;SDS011;56083;48.774;8.942;2022-08-25T00:36:12;5.85;;;2.80;;
69030;SDS011;56083;48.774;8.942;2022-08-25T00:38:42;4.25;;;3.22;;
69030;SDS011;56083;48.774;8.942;2022-08-25T00:41:10;4.95;;;3.00;;
69030;SDS011;56083;48.774;8.942;2022-08-25T00:46:10;5.30;;;3.13;;
69030;SDS011;56083;48.774;8.942;2022-08-25T00:48:38;4.28;;;2.97;;
69030;SDS011;56083;48.774;8.942;2022-08-25T00:51:07;5.35;;;3.33;;
69030;SDS011;56083;48.774;8.942;2022-08-25T00:53:35;5.65;;;3.17;;
69030;SDS011;56083;48.774;8.942;2022-08-25T00:56:01;5.03;;;3.00;;
69030;SDS011;56083;48.774;8.942;2022-08-25T00:58:27;4.97;;;2.70;;
69030;SDS011;56083;48.774;8.942;2022-08-25T01:00:56;3.03;;;2.72;;
69030;SDS011;56083;48.774;8.942;2022-08-25T01:03:23;3.63;;;3.10;;
69030;SDS011;56083;48.774;8.942;2022-08-25T01:05:53;5.03;;;3.47;;
69030;SDS011;56083;48.774;8.942;2022-08-25T01:08:20;4.43;;;3.42;;
69030;SDS011;56083;48.774;8.942;2022-08-25T01:10:51;5.07;;;3.28;;
69030;SDS011;56083;48.774;8.942;2022-08-25T01:13:23;4.18;;;3.15;;
69030;SDS011;56083;48.774;8.942;2022-08-25T01:15:53;7.28;;;3.60;;
69030;SDS011;56083;48.774;8.942;2022-08-25T01:18:20;4.68;;;3.25;;
69030;SDS011;56083;48.774;8.942;2022-08-25T01:20:54;4.75;;;3.13;;
69030;SDS011;56083;48.774;8.942;2022-08-25T01:23:21;4.57;;;3.40;;
69030;SDS011;56083;48.774;8.942;2022-08-25T01:25:54;5.95;;;3.80;;
69030;SDS011;56083;48.774;8.942;2022-08-25T01:28:35;10.48;;;3.85;;
69030;SDS011;56083;48.774;8.942;2022-08-25T01:31:02;6.40;;;3.50;;
69030;SDS011;56083;48.774;8.942;2022-08-25T01:33:29;5.32;;;3.70;;
69030;SDS011;56083;48.774;8.942;2022-08-25T01:35:54;4.20;;;3.10;;
69030;SDS011;56083;48.774;8.942;2022-08-25T01:38:20;4.35;;;3.30;;
69030;SDS011;56083;48.774;8.942;2022-08-25T01:40:46;4.47;;;3.80;;
69030;SDS011;56083;48.774;8.942;2022-08-25T01:43:20;8.30;;;3.80;;
69030;SDS011;56083;48.774;8.942;2022-08-25T01:45:54;5.55;;;3.88;;
69030;SDS011;56083;48.774;8.942;2022-08-25T01:48:21;6.88;;;3.42;;
69030;SDS011;56083;48.774;8.942;2022-08-25T01:50:47;4.35;;;3.40;;
69030;SDS011;56083;48.774;8.942;2022-08-25T01:53:26;5.15;;;3.58;;
69030;SDS011;56083;48.774;8.942;2022-08-25T01:55:54;4.40;;;3.65;;
69030;SDS011;56083;48.774;8.942;2022-08-25T01:58:33;5.90;;;3.75;;
69030;SDS011;56083;48.774;8.942;2022-08-25T02:01:00;6.18;;;3.83;;
69030;SDS011;56083;48.774;8.942;2022-08-25T02:03:29;7.07;;;3.95;;
69030;SDS011;56083;48.774;8.942;2022-08-25T02:05:55;7.25;;;3.67;;
69030;SDS011;56083;48.774;8.942;2022-08-25T02:08:24;4.25;;;3.85;;
69030;SDS011;56083;48.774;8.942;2022-08-25T02:10:50;4.32;;;3.63;;
69030;SDS011;56083;48.774;8.942;2022-08-25T02:13:16;7.82;;;4.05;;
69030;SDS011;56083;48.774;8.942;2022-08-25T02:15:47;6.60;;;3.95;;
69030;SDS011;56083;48.774;8.942;2022-08-25T02:18:16;10.05;;;4.13;;
69030;SDS011;56083;48.774;8.942;2022-08-25T02:20:42;4.68;;;3.63;;
69030;SDS011;56083;48.774;8.942;2022-08-25T02:23:08;5.10;;;3.72;;
69030;SDS011;56083;48.774;8.942;2022-08-25T02:25:35;8.32;;;4.15;;
69030;SDS011;56083;48.774;8.942;2022-08-25T02:28:02;6.22;;;3.72;;
69030;SDS011;56083;48.774;8.942;2022-08-25T02:30:28;5.47;;;3.60;;
69030;SDS011;56083;48.774;8.942;2022-08-25T02:32:54;5.53;;;3.67;;
69030;SDS011;56083;48.774;8.942;2022-08-25T02:35:20;5.25;;;3.95;;
69030;SDS011;56083;48.774;8.942;2022-08-25T02:37:46;8.07;;;3.90;;
69030;SDS011;56083;48.774;8.942;2022-08-25T02:40:11;9.07;;;3.85;;
69030;SDS011;56083;48.774;8.942;2022-08-25T02:42:37;9.27;;;4.13;;
69030;SDS011;56083;48.774;8.942;2022-08-25T02:45:04;5.10;;;3.67;;
69030;SDS011;56083;48.774;8.942;2022-08-25T02:47:31;11.00;;;4.32;;
69030;SDS011;56083;48.774;8.942;2022-08-25T02:49:57;12.02;;;4.30;;
69030;SDS011;56083;48.774;8.942;2022-08-25T02:52:23;7.95;;;4.47;;
69030;SDS011;56083;48.774;8.942;2022-08-25T02:54:49;7.63;;;4.85;;
69030;SDS011;56083;48.774;8.942;2022-08-25T02:57:15;5.65;;;4.70;;
69030;SDS011;56083;48.774;8.942;2022-08-25T02:59:42;7.88;;;4.50;;
69030;SDS011;56083;48.774;8.942;2022-08-25T03:02:11;5.18;;;4.38;;
69030;SDS011;56083;48.774;8.942;2022-08-25T03:04:36;11.35;;;4.65;;
69030;SDS011;56083;48.774;8.942;2022-08-25T03:07:02;7.30;;;4.63;;
69030;SDS011;56083;48.774;8.942;2022-08-25T03:09:29;8.00;;;5.03;;
69030;SDS011;56083;48.774;8.942;2022-08-25T03:11:54;6.50;;;4.88;;
69030;SDS011;56083;48.774;8.942;2022-08-25T03:14:20;5.93;;;4.57;;
69030;SDS011;56083;48.774;8.942;2022-08-25T03:16:46;9.90;;;4.93;;
69030;SDS011;56083;48.774;8.942;2022-08-25T03:19:11;6.15;;;4.93;;
69030;SDS011;56083;48.774;8.942;2022-08-25T03:21:37;8.85;;;4.63;;
69030;SDS011;56083;48.774;8.942;2022-08-25T03:24:04;8.45;;;4.85;;
69030;SDS011;56083;48.774;8.942;2022-08-25T03:26:30;6.35;;;4.68;;
69030;SDS011;56083;48.774;8.942;2022-08-25T03:29:14;6.30;;;4.22;;
69030;SDS011;56083;48.774;8.942;2022-08-25T03:31:42;7.78;;;5.18;;
69030;SDS011;56083;48.774;8.942;2022-08-25T03:34:10;6.72;;;4.85;;
69030;SDS011;56083;48.774;8.942;2022-08-25T03:36:36;9.43;;;4.68;;
69030;SDS011;56083;48.774;8.942;2022-08-25T03:39:02;8.45;;;4.75;;
69030;SDS011;56083;48.774;8.942;2022-08-25T03:41:30;10.43;;;4.90;;
69030;SDS011;56083;48.774;8.942;2022-08-25T03:43:56;7.97;;;4.95;;
69030;SDS011;56083;48.774;8.942;2022-08-25T03:46:30;7.30;;;5.10;;
69030;SDS011;56083;48.774;8.942;2022-08-25T03:49:02;7.57;;;5.07;;
69030;SDS011;56083;48.774;8.942;2022-08-25T03:51:30;6.43;;;5.03;;
69030;SDS011;56083;48.774;8.942;2022-08-25T03:53:58;8.38;;;5.57;;
69030;SDS011;56083;48.774;8.942;2022-08-25T03:56:25;8.95;;;5.30;;
69030;SDS011;56083;48.774;8.942;2022-08-25T03:58:51;10.80;;;5.00;;
69030;SDS011;56083;48.774;8.942;2022-08-25T04:01:17;8.90;;;5.07;;
69030;SDS011;56083;48.774;8.942;2022-08-25T04:03:43;8.07;;;5.10;;
69030;SDS011;56083;48.774;8.942;2022-08-25T04:06:10;7.13;;;5.82;;
69030;SDS011;56083;48.774;8.942;2022-08-25T04:08:36;6.60;;;5.40;;
69030;SDS011;56083;48.774;8.942;2022-08-25T04:11:09;8.88;;;5.43;;
69030;SDS011;56083;48.774;8.942;2022-08-25T04:13:37;8.75;;;5.43;;
69030;SDS011;56083;48.774;8.942;2022-08-25T04:16:08;6.45;;;4.82;;
69030;SDS011;56083;48.774;8.942;2022-08-25T04:18:39;8.95;;;5.63;;
69030;SDS011;56083;48.774;8.942;2022-08-25T04:21:06;8.90;;;5.50;;
69030;SDS011;56083;48.774;8.942;2022-08-25T04:23:33;10.13;;;5.18;;
69030;SDS011;56083;48.774;8.942;2022-08-25T04:26:12;8.85;;;5.70;;
69030;SDS011;56083;48.774;8.942;2022-08-25T04:28:39;9.73;;;6.15;;
69030;SDS011;56083;48.774;8.942;2022-08-25T04:31:06;7.00;;;5.45;;
69030;SDS011;56083;48.774;8.942;2022-08-25T04:33:33;8.23;;;5.60;;
69030;SDS011;56083;48.774;8.942;2022-08-25T04:35:58;10.07;;;5.75;;
69030;SDS011;56083;48.774;8.942;2022-08-25T04:38:24;6.07;;;5.07;;
69030;SDS011;56083;48.774;8.942;2022-08-25T04:40:58;7.53;;;5.35;;
69030;SDS011;56083;48.774;8.942;2022-08-25T04:43:25;9.20;;;5.50;;
69030;SDS011;56083;48.774;8.942;2022-08-25T04:45:51;10.80;;;5.75;;
69030;SDS011;56083;48.774;8.942;2022-08-25T04:48:17;8.10;;;5.32;;
69030;SDS011;56083;48.774;8.942;2022-08-25T04:50:43;9.35;;;5.53;;
69030;SDS011;56083;48.774;8.942;2022-08-25T04:53:09;8.00;;;5.80;;
69030;SDS011;56083;48.774;8.942;2022-08-25T04:55:43;8.93;;;5.55;;
69030;SDS011;56083;48.774;8.942;2022-08-25T04:58:10;10.07;;;6.07;;
69030;SDS011;56083;48.774;8.942;2022-08-25T05:00:37;12.40;;;6.20;;
69030;SDS011;56083;48.774;8.942;2022-08-25T05:03:04;12.73;;;6.10;;
69030;SDS011;56083;48.774;8.942;2022-08-25T05:05:30;10.27;;;5.68;;
69030;SDS011;56083;48.774;8.942;2022-08-25T05:07:57;8.73;;;6.20;;
69030;SDS011;56083;48.774;8.942;2022-08-25T05:10:23;15.73;;;6.93;;
69030;SDS011;56083;48.774;8.942;2022-08-25T05:12:50;11.55;;;6.30;;
69030;SDS011;56083;48.774;8.942;2022-08-25T05:15:15;13.90;;;6.07;;
69030;SDS011;56083;48.774;8.942;2022-08-25T05:18:00;10.73;;;5.75;;
69030;SDS011;56083;48.774;8.942;2022-08-25T05:20:25;11.57;;;6.18;;
69030;SDS011;56083;48.774;8.942;2022-08-25T05:22:51;18.00;;;6.00;;
69030;SDS011;56083;48.774;8.942;2022-08-25T05:25:17;15.30;;;5.70;;
69030;SDS011;56083;48.774;8.942;2022-08-25T05:27:43;12.95;;;5.80;;
69030;SDS011;56083;48.774;8.942;2022-08-25T05:30:10;19.70;;;5.80;;
69030;SDS011;56083;48.774;8.942;2022-08-25T05:32:36;12.95;;;5.45;;
69030;SDS011;56083;48.774;8.942;2022-08-25T05:35:03;13.25;;;5.60;;
69030;SDS011;56083;48.774;8.942;2022-08-25T05:37:29;20.08;;;5.97;;
69030;SDS011;56083;48.774;8.942;2022-08-25T05:39:55;13.75;;;6.38;;
69030;SDS011;56083;48.774;8.942;2022-08-25T05:42:20;16.00;;;5.72;;
69030;SDS011;56083;48.774;8.942;2022-08-25T05:44:46;10.57;;;5.97;;
69030;SDS011;56083;48.774;8.942;2022-08-25T05:47:12;12.50;;;6.10;;
69030;SDS011;56083;48.774;8.942;2022-08-25T05:49:38;10.13;;;5.65;;
69030;SDS011;56083;48.774;8.942;2022-08-25T05:52:03;11.50;;;5.30;;
69030;SDS011;56083;48.774;8.942;2022-08-25T05:54:30;9.38;;;5.47;;
69030;SDS011;56083;48.774;8.942;2022-08-25T05:56:56;11.07;;;5.32;;
69030;SDS011;56083;48.774;8.942;2022-08-25T05:59:22;9.70;;;5.25;;
69030;SDS011;56083;48.774;8.942;2022-08-25T06:01:48;10.02;;;5.32;;
69030;SDS011;56083;48.774;8.942;2022-08-25T06:04:32;11.35;;;5.97;;
69030;SDS011;56083;48.774;8.942;2022-08-25T06:06:58;8.65;;;5.50;;
69030;SDS011;56083;48.774;8.942;2022-08-25T06:09:24;9.18;;;5.25;;
69030;SDS011;56083;48.774;8.942;2022-08-25T06:11:50;11.25;;;5.28;;
69030;SDS011;56083;48.774;8.942;2022-08-25T06:14:16;8.32;;;4.50;;
69030;SDS011;56083;48.774;8.942;2022-08-25T06:16:42;7.38;;;4.93;;
69030;SDS011;56083;48.774;8.942;2022-08-25T06:19:08;9.20;;;4.75;;
69030;SDS011;56083;48.774;8.942;2022-08-25T06:21:35;13.48;;;4.97;;
69030;SDS011;56083;48.774;8.942;2022-08-25T06:24:05;8.75;;;5.03;;
69030;SDS011;56083;48.774;8.942;2022-08-25T06:26:31;7.20;;;4.43;;
69030;SDS011;56083;48.774;8.942;2022-08-25T06:28:57;9.75;;;4.53;;
69030;SDS011;56083;48.774;8.942;2022-08-25T06:31:23;8.50;;;4.78;;
69030;SDS011;56083;48.774;8.942;2022-08-25T06:33:49;7.68;;;4.57;;
69030;SDS011;56083;48.774;8.942;2022-08-25T06:36:15;6.22;;;4.95;;
69030;SDS011;56083;48.774;8.942;2022-08-25T06:38:41;10.73;;;4.97;;
69030;SDS011;56083;48.774;8.942;2022-08-25T06:41:07;8.43;;;4.30;;
69030;SDS011;56083;48.774;8.942;2022-08-25T06:43:38;10.02;;;4.07;;
69030;SDS011;56083;48.774;8.942;2022-08-25T06:48:35;10.77;;;4.25;;
69030;SDS011;56083;48.774;8.942;2022-08-25T06:51:07;14.98;;;4.57;;
69030;SDS011;56083;48.774;8.942;2022-08-25T06:53:34;10.05;;;3.80;;
69030;SDS011;56083;48.774;8.942;2022-08-25T06:56:00;5.85;;;3.28;;
69030;SDS011;56083;48.774;8.942;2022-08-25T06:58:27;7.82;;;3.60;;
69030;SDS011;56083;48.774;8.942;2022-08-25T07:00:52;7.80;;;3.42;;
69030;SDS011;56083;48.774;8.942;2022-08-25T07:03:18;9.90;;;3.80;;
69030;SDS011;56083;48.774;8.942;2022-08-25T07:05:51;4.70;;;3.30;;
69030;SDS011;56083;48.774;8.942;2022-08-25T07:08:18;7.25;;;3.70;;
69030;SDS011;56083;48.774;8.942;2022-08-25T07:10:44;6.38;;;3.03;;
69030;SDS011;56083;48.774;8.942;2022-08-25T07:13:11;8.63;;;3.78;;
69030;SDS011;56083;48.774;8.942;2022-08-25T07:15:37;5.80;;;3.20;;
69030;SDS011;56083;48.774;8.942;2022-08-25T07:18:04;6.13;;;3.88;;
69030;SDS011;56083;48.774;8.942;2022-08-25T07:20:30;4.40;;;3.13;;
69030;SDS011;56083;48.774;8.942;2022-08-25T07:22:57;7.30;;;3.40;;
69030;SDS011;56083;48.774;8.942;2022-08-25T07:25:23;4.13;;;3.40;;
69030;SDS011;56083;48.774;8.942;2022-08-25T07:27:49;8.15;;;3.85;;
69030;SDS011;56083;48.774;8.942;2022-08-25T07:30:15;6.82;;;3.80;;
69030;SDS011;56083;48.774;8.942;2022-08-25T07:32:41;7.63;;;3.33;;
69030;SDS011;56083;48.774;8.942;2022-08-25T07:35:07;7.15;;;3.45;;
69030;SDS011;56083;48.774;8.942;2022-08-25T07:37:43;6.40;;;3.30;;
69030;SDS011;56083;48.774;8.942;2022-08-25T07:40:15;6.35;;;3.50;;
69030;SDS011;56083;48.774;8.942;2022-08-25T07:42:43;4.63;;;3.05;;
69030;SDS011;56083;48.774;8.942;2022-08-25T07:45:09;5.50;;;3.80;;
69030;SDS011;56083;48.774;8.942;2022-08-25T07:47:36;8.25;;;4.22;;
69030;SDS011;56083;48.774;8.942;2022-08-25T07:50:03;4.88;;;3.20;;
69030;SDS011;56083;48.774;8.942;2022-08-25T07:52:30;7.18;;;3.45;;
69030;SDS011;56083;48.774;8.942;2022-08-25T07:54:55;10.05;;;3.00;;
69030;SDS011;56083;48.774;8.942;2022-08-25T07:57:22;5.65;;;3.35;;
69030;SDS011;56083;48.774;8.942;2022-08-25T07:59:50;3.70;;;3.10;;
69030;SDS011;56083;48.774;8.942;2022-08-25T08:02:16;5.75;;;3.40;;
69030;SDS011;56083;48.774;8.942;2022-08-25T08:04:42;7.32;;;3.50;;
69030;SDS011;56083;48.774;8.942;2022-08-25T08:07:09;6.13;;;3.50;;
69030;SDS011;56083;48.774;8.942;2022-08-25T08:09:35;5.90;;;3.78;;
69030;SDS011;56083;48.774;8.942;2022-08-25T08:12:02;5.82;;;3.63;;
69030;SDS011;56083;48.774;8.942;2022-08-25T08:14:28;5.00;;;3.95;;
69030;SDS011;56083;48.774;8.942;2022-08-25T08:16:53;6.43;;;3.70;;
69030;SDS011;56083;48.774;8.942;2022-08-25T08:19:19;5.82;;;3.45;;
69030;SDS011;56083;48.774;8.942;2022-08-25T08:21:46;7.00;;;4.03;;
69030;SDS011;56083;48.774;8.942;2022-08-25T08:24:13;7.72;;;3.67;;
69030;SDS011;56083;48.774;8.942;2022-08-25T08:26:39;8.63;;;3.25;;
69030;SDS011;56083;48.774;8.942;2022-08-25T08:29:04;7.07;;;3.58;;
69030;SDS011;56083;48.774;8.942;2022-08-25T08:31:30;5.95;;;3.63;;
69030;SDS011;56083;48.774;8.942;2022-08-25T08:33:56;5.63;;;3.53;;
69030;SDS011;56083;48.774;8.942;2022-08-25T08:36:23;9.43;;;3.70;;
69030;SDS011;56083;48.774;8.942;2022-08-25T08:38:50;3.92;;;3.20;;
69030;SDS011;56083;48.774;8.942;2022-08-25T08:47:27;9.50;;;3.80;;
69030;SDS011;56083;48.774;8.942;2022-08-25T08:49:35;6.25;;;3.47;;
69030;SDS011;56083;48.774;8.942;2022-08-25T08:52:10;5.72;;;3.60;;
69030;SDS011;56083;48.774;8.942;2022-08-25T08:54:41;4.90;;;3.63;;
69030;SDS011;56083;48.774;8.942;2022-08-25T08:57:13;6.72;;;4.00;;
69030;SDS011;56083;48.774;8.942;2022-08-25T08:59:52;8.18;;;3.80;;
69030;SDS011;56083;48.774;8.942;2022-08-25T09:02:24;8.23;;;3.65;;
69030;SDS011;56083;48.774;8.942;2022-08-25T09:05:00;4.75;;;3.60;;
69030;SDS011;56083;48.774;8.942;2022-08-25T09:07:34;10.95;;;3.70;;
69030;SDS011;56083;48.774;8.942;2022-08-25T09:10:05;4.20;;;3.45;;
69030;SDS011;56083;48.774;8.942;2022-08-25T09:12:45;4.95;;;3.65;;
69030;SDS011;56083;48.774;8.942;2022-08-25T09:15:23;6.38;;;3.45;;
69030;SDS011;56083;48.774;8.942;2022-08-25T09:18:21;4.65;;;3.90;;
69030;SDS011;56083;48.774;8.942;2022-08-25T09:31:13;7.32;;;3.20;;
69030;SDS011;56083;48.774;8.942;2022-08-25T09:33:54;5.45;;;3.70;;
69030;SDS011;56083;48.774;8.942;2022-08-25T09:36:24;6.10;;;3.72;;
69030;SDS011;56083;48.774;8.942;2022-08-25T09:38:49;5.20;;;3.60;;
69030;SDS011;56083;48.774;8.942;2022-08-25T09:41:16;4.82;;;3.33;;
69030;SDS011;56083;48.774;8.942;2022-08-25T09:43:58;4.50;;;3.15;;
69030;SDS011;56083;48.774;8.942;2022-08-25T09:46:28;5.78;;;3.30;;
69030;SDS011;56083;48.774;8.942;2022-08-25T09:48:54;3.80;;;3.38;;
69030;SDS011;56083;48.774;8.942;2022-08-25T09:56:30;3.97;;;3.28;;
69030;SDS011;56083;48.774;8.942;2022-08-25T10:01:47;10.38;;;3.25;;
69030;SDS011;56083;48.774;8.942;2022-08-25T10:04:15;6.50;;;3.17;;
69030;SDS011;56083;48.774;8.942;2022-08-25T10:09:57;6.07;;;3.45;;
69030;SDS011;56083;48.774;8.942;2022-08-25T10:12:34;5.72;;;3.50;;
69030;SDS011;56083;48.774;8.942;2022-08-25T10:15:19;3.75;;;3.22;;
69030;SDS011;56083;48.774;8.942;2022-08-25T10:18:39;8.27;;;3.70;;
69030;SDS011;56083;48.774;8.942;2022-08-25T10:23:39;4.80;;;3.50;;
69030;SDS011;56083;48.774;8.942;2022-08-25T10:26:15;4.18;;;3.05;;
69030;SDS011;56083;48.774;8.942;2022-08-25T10:31:22;4.90;;;3.08;;
69030;SDS011;56083;48.774;8.942;2022-08-25T10:34:02;4.95;;;3.15;;
69030;SDS011;56083;48.774;8.942;2022-08-25T10:39:22;5.22;;;3.15;;
69030;SDS011;56083;48.774;8.942;2022-08-25T10:42:07;5.05;;;3.00;;
69030;SDS011;56083;48.774;8.942;2022-08-25T10:45:02;3.50;;;3.00;;
69030;SDS011;56083;48.774;8.942;2022-08-25T10:56:25;6.28;;;3.00;;
69030;SDS011;56083;48.774;8.942;2022-08-25T11:04:21;4.13;;;2.80;;
69030;SDS011;56083;48.774;8.942;2022-08-25T11:09:51;7.70;;;3.30;;
69030;SDS011;56083;48.774;8.942;2022-08-25T11:12:34;8.82;;;3.40;;
69030;SDS011;56083;48.774;8.942;2022-08-25T11:20:20;5.20;;;3.17;;
69030;SDS011;56083;48.774;8.942;2022-08-25T11:26:18;5.30;;;2.95;;
69030;SDS011;56083;48.774;8.942;2022-08-25T11:29:01;2.95;;;2.42;;
69030;SDS011;56083;48.774;8.942;2022-08-25T11:31:50;3.63;;;2.55;;
69030;SDS011;56083;48.774;8.942;2022-08-25T11:34:17;3.35;;;2.63;;
69030;SDS011;56083;48.774;8.942;2022-08-25T11:36:51;6.60;;;2.20;;
69030;SDS011;56083;48.774;8.942;2022-08-25T11:39:41;3.88;;;2.40;;
69030;SDS011;56083;48.774;8.942;2022-08-25T11:45:35;2.67;;;1.90;;
69030;SDS011;56083;48.774;8.942;2022-08-25T11:48:43;3.22;;;2.40;;
69030;SDS011;56083;48.774;8.942;2022-08-25T11:51:43;3.72;;;2.08;;
69030;SDS011;56083;48.774;8.942;2022-08-25T11:56:52;3.35;;;2.38;;
69030;SDS011;56083;48.774;8.942;2022-08-25T12:07:57;5.72;;;2.40;;
69030;SDS011;56083;48.774;8.942;2022-08-25T12:10:59;4.43;;;2.50;;
69030;SDS011;56083;48.774;8.942;2022-08-25T12:13:43;8.30;;;2.20;;
69030;SDS011;56083;48.774;8.942;2022-08-25T12:24:46;2.78;;;2.20;;
69030;SDS011;56083;48.774;8.942;2022-08-25T12:27:42;4.88;;;2.10;;
69030;SDS011;56083;48.774;8.942;2022-08-25T12:30:45;5.60;;;1.90;;
69030;SDS011;56083;48.774;8.942;2022-08-25T12:36:24;2.33;;;2.13;;
69030;SDS011;56083;48.774;8.942;2022-08-25T12:39:17;2.33;;;2.13;;
69030;SDS011;56083;48.774;8.942;2022-08-25T12:41:50;3.53;;;2.15;;
69030;SDS011;56083;48.774;8.942;2022-08-25T12:47:23;3.30;;;2.08;;
69030;SDS011;56083;48.774;8.942;2022-08-25T12:53:15;6.13;;;2.00;;
69030;SDS011;56083;48.774;8.942;2022-08-25T12:56:09;4.40;;;1.90;;
69030;SDS011;56083;48.774;8.942;2022-08-25T13:04:21;3.40;;;2.05;;
69030;SDS011;56083;48.774;8.942;2022-08-25T13:07:03;6.45;;;2.90;;
69030;SDS011;56083;48.774;8.942;2022-08-25T13:10:07;3.05;;;2.55;;
69030;SDS011;56083;48.774;8.942;2022-08-25T13:18:13;6.40;;;2.38;;
69030;SDS011;56083;48.774;8.942;2022-08-25T13:20:52;4.38;;;2.50;;
69030;SDS011;56083;48.774;8.942;2022-08-25T13:23:26;3.03;;;2.58;;
69030;SDS011;56083;48.774;8.942;2022-08-25T13:25:55;3.28;;;2.50;;
69030;SDS011;56083;48.774;8.942;2022-08-25T13:28:26;3.30;;;2.35;;
69030;SDS011;56083;48.774;8.942;2022-08-25T13:30:58;3.00;;;1.92;;
69030;SDS011;56083;48.774;8.942;2022-08-25T13:33:27;3.75;;;1.98;;
69030;SDS011;56083;48.774;8.942;2022-08-25T13:35:59;2.22;;;2.03;;
69030;SDS011;56083;48.774;8.942;2022-08-25T13:38:48;7.57;;;2.75;;
69030;SDS011;56083;48.774;8.942;2022-08-25T13:41:18;2.75;;;2.22;;
69030;SDS011;56083;48.774;8.942;2022-08-25T13:43:48;3.40;;;2.10;;
69030;SDS011;56083;48.774;8.942;2022-08-25T13:46:18;6.10;;;2.17;;
69030;SDS011;56083;48.774;8.942;2022-08-25T13:48:46;2.67;;;2.15;;
69030;SDS011;56083;48.774;8.942;2022-08-25T13:53:46;5.13;;;2.28;;
69030;SDS011;56083;48.774;8.942;2022-08-25T13:56:25;3.45;;;2.10;;
69030;SDS011;56083;48.774;8.942;2022-08-25T13:58:57;3.33;;;2.30;;
69030;SDS011;56083;48.774;8.942;2022-08-25T14:01:28;6.10;;;2.30;;
69030;SDS011;56083;48.774;8.942;2022-08-25T14:04:18;2.85;;;2.10;;
69030;SDS011;56083;48.774;8.942;2022-08-25T14:07:03;3.97;;;2.15;;
69030;SDS011;56083;48.774;8.942;2022-08-25T14:09:45;4.93;;;2.33;;
69030;SDS011;56083;48.774;8.942;2022-08-25T14:15:32;2.28;;;1.80;;
69030;SDS011;56083;48.774;8.942;2022-08-25T14:20:27;4.88;;;2.30;;
69030;SDS011;56083;48.774;8.942;2022-08-25T14:23:28;3.58;;;2.15;;
69030;SDS011;56083;48.774;8.942;2022-08-25T14:25:54;3.08;;;2.17;;
69030;SDS011;56083;48.774;8.942;2022-08-25T14:28:22;3.03;;;2.03;;
69030;SDS011;56083;48.774;8.942;2022-08-25T14:36:24;3.17;;;2.25;;
69030;SDS011;56083;48.774;8.942;2022-08-25T14:38:53;3.50;;;2.00;;
69030;SDS011;56083;48.774;8.942;2022-08-25T14:41:19;3.63;;;2.10;;
69030;SDS011;56083;48.774;8.942;2022-08-25T14:43:45;4.28;;;2.28;;
69030;SDS011;56083;48.774;8.942;2022-08-25T14:46:21;2.97;;;2.08;;
69030;SDS011;56083;48.774;8.942;2022-08-25T14:48:50;3.90;;;2.20;;
69030;SDS011;56083;48.774;8.942;2022-08-25T14:51:19;3.15;;;2.05;;
69030;SDS011;56083;48.774;8.942;2022-08-25T14:53:47;2.75;;;2.10;;
69030;SDS011;56083;48.774;8.942;2022-08-25T14:56:14;3.60;;;1.98;;
69030;SDS011;56083;48.774;8.942;2022-08-25T14:58:40;3.33;;;2.00;;
69030;SDS011;56083;48.774;8.942;2022-08-25T15:01:12;2.63;;;2.10;;
69030;SDS011;56083;48.774;8.942;2022-08-25T15:03:41;2.67;;;2.20;;
69030;SDS011;56083;48.774;8.942;2022-08-25T15:06:11;3.00;;;1.80;;
69030;SDS011;56083;48.774;8.942;2022-08-25T15:08:39;3.83;;;1.80;;
69030;SDS011;56083;48.774;8.942;2022-08-25T15:11:24;2.42;;;1.73;;
69030;SDS011;56083;48.774;8.942;2022-08-25T15:13:50;2.22;;;1.83;;
69030;SDS011;56083;48.774;8.942;2022-08-25T15:16:25;5.03;;;1.92;;
69030;SDS011;56083;48.774;8.942;2022-08-25T15:18:54;3.25;;;1.70;;
69030;SDS011;56083;48.774;8.942;2022-08-25T15:21:20;3.45;;;1.83;;
69030;SDS011;56083;48.774;8.942;2022-08-25T15:23:46;5.03;;;2.00;;
69030;SDS011;56083;48.774;8.942;2022-08-25T15:26:12;4.22;;;2.10;;
69030;SDS011;56083;48.774;8.942;2022-08-25T15:28:41;5.28;;;2.00;;
69030;SDS011;56083;48.774;8.942;2022-08-25T15:31:09;7.80;;;3.28;;
69030;SDS011;56083;48.774;8.942;2022-08-25T15:33:39;4.47;;;1.80;;
69030;SDS011;56083;48.774;8.942;2022-08-25T15:36:11;5.50;;;1.80;;
69030;SDS011;56083;48.774;8.942;2022-08-25T15:38:39;7.63;;;1.70;;
69030;SDS011;56083;48.774;8.942;2022-08-25T15:41:07;5.60;;;1.80;;
69030;SDS011;56083;48.774;8.942;2022-08-25T15:43:34;3.55;;;1.95;;
69030;SDS011;56083;48.774;8.942;2022-08-25T15:46:02;2.15;;;1.75;;
69030;SDS011;56083;48.774;8.942;2022-08-25T15:48:29;1.98;;;1.60;;
69030;SDS011;56083;48.774;8.942;2022-08-25T15:50:56;2.53;;;1.70;;
69030;SDS011;56083;48.774;8.942;2022-08-25T15:53:25;4.35;;;1.80;;
69030;SDS011;56083;48.774;8.942;2022-08-25T15:55:52;2.17;;;1.83;;
69030;SDS011;56083;48.774;8.942;2022-08-25T15:58:18;3.63;;;1.73;;
69030;SDS011;56083;48.774;8.942;2022-08-25T16:00:45;5.25;;;1.80;;
69030;SDS011;56083;48.774;8.942;2022-08-25T16:03:11;4.28;;;1.85;;
69030;SDS011;56083;48.774;8.942;2022-08-25T16:05:38;2.85;;;1.77;;
69030;SDS011;56083;48.774;8.942;2022-08-25T16:08:06;4.55;;;2.00;;
69030;SDS011;56083;48.774;8.942;2022-08-25T16:10:36;4.07;;;1.90;;
69030;SDS011;56083;48.774;8.942;2022-08-25T16:13:09;2.50;;;1.80;;
69030;SDS011;56083;48.774;8.942;2022-08-25T16:15:35;2.10;;;1.90;;
69030;SDS011;56083;48.774;8.942;2022-08-25T16:18:02;3.47;;;1.90;;
69030;SDS011;56083;48.774;8.942;2022-08-25T16:20:44;5.07;;;1.70;;
69030;SDS011;56083;48.774;8.942;2022-08-25T16:23:12;8.45;;;1.90;;
69030;SDS011;56083;48.774;8.942;2022-08-25T16:25:40;6.35;;;1.80;;
69030;SDS011;56083;48.774;8.942;2022-08-25T16:28:08;3.53;;;2.05;;
69030;SDS011;56083;48.774;8.942;2022-08-25T16:30:35;4.50;;;1.80;;
69030;SDS011;56083;48.774;8.942;2022-08-25T16:33:01;3.15;;;2.00;;
69030;SDS011;56083;48.774;8.942;2022-08-25T16:35:27;3.55;;;1.88;;
69030;SDS011;56083;48.774;8.942;2022-08-25T16:37:52;6.13;;;2.03;;
69030;SDS011;56083;48.774;8.942;2022-08-25T16:40:19;5.95;;;2.00;;
69030;SDS011;56083;48.774;8.942;2022-08-25T16:42:47;2.58;;;1.73;;
69030;SDS011;56083;48.774;8.942;2022-08-25T16:45:13;7.03;;;1.90;;
69030;SDS011;56083;48.774;8.942;2022-08-25T16:47:38;3.35;;;1.88;;
69030;SDS011;56083;48.774;8.942;2022-08-25T16:50:05;5.82;;;1.90;;
69030;SDS011;56083;48.774;8.942;2022-08-25T16:52:35;4.82;;;2.20;;
69030;SDS011;56083;48.774;8.942;2022-08-25T16:55:20;4.95;;;2.30;;
69030;SDS011;56083;48.774;8.942;2022-08-25T16:57:47;3.20;;;2.28;;
69030;SDS011;56083;48.774;8.942;2022-08-25T17:00:16;8.25;;;2.33;;
69030;SDS011;56083;48.774;8.942;2022-08-25T17:02:45;5.47;;;2.20;;
69030;SDS011;56083;48.774;8.942;2022-08-25T17:05:12;3.72;;;2.25;;
69030;SDS011;56083;48.774;8.942;2022-08-25T17:07:38;4.03;;;2.40;;